sensor_id;sensor_type;location;lat;lon;timestamp;P1;durP1;ratioP1;P2;durP2;ratioP2
76176;SDS011;64938;47.696;8.066;2023-03-26T00:01:10;5.47;;;1.90;;
76176;SDS011;64938;47.696;8.066;2023-03-26T00:03:39;7.77;;;1.90;;
76176;SDS011;64938;47.696;8.066;2023-03-26T00:06:08;3.23;;;1.90;;
76176;SDS011;64938;47.696;8.066;2023-03-26T00:08:37;11.10;;;2.37;;
76176;SDS011;64938;47.696;8.066;2023-03-26T00:11:04;5.80;;;2.50;;
76176;SDS011;64938;47.696;8.066;2023-03-26T00:13:30;2.80;;;1.67;;
76176;SDS011;64938;47.696;8.066;2023-03-26T00:15:57;4.37;;;1.30;;
76176;SDS011;64938;47.696;8.066;2023-03-26T00:18:23;4.50;;;1.93;;
76176;SDS011;64938;47.696;8.066;2023-03-26T00:20:54;5.40;;;2.10;;
76176;SDS011;64938;47.696;8.066;2023-03-26T00:23:21;6.50;;;1.80;;
76176;SDS011;64938;47.696;8.066;2023-03-26T00:25:47;5.80;;;1.80;;
76176;SDS011;64938;47.696;8.066;2023-03-26T00:28:15;2.77;;;1.70;;
76176;SDS011;64938;47.696;8.066;2023-03-26T00:30:41;7.20;;;2.30;;
76176;SDS011;64938;47.696;8.066;2023-03-26T00:33:07;4.13;;;1.67;;
76176;SDS011;64938;47.696;8.066;2023-03-26T00:35:37;5.30;;;2.50;;
76176;SDS011;64938;47.696;8.066;2023-03-26T00:38:03;6.13;;;1.97;;
76176;SDS011;64938;47.696;8.066;2023-03-26T00:40:28;5.50;;;1.90;;
76176;SDS011;64938;47.696;8.066;2023-03-26T00:42:56;4.20;;;1.70;;
76176;SDS011;64938;47.696;8.066;2023-03-26T00:45:21;6.00;;;1.70;;
76176;SDS011;64938;47.696;8.066;2023-03-26T00:47:47;4.83;;;1.87;;
76176;SDS011;64938;47.696;8.066;2023-03-26T00:50:13;5.87;;;2.50;;
76176;SDS011;64938;47.696;8.066;2023-03-26T00:52:42;2.63;;;1.67;;
76176;SDS011;64938;47.696;8.066;2023-03-26T00:55:08;6.00;;;2.20;;
76176;SDS011;64938;47.696;8.066;2023-03-26T00:57:34;3.53;;;1.87;;
76176;SDS011;64938;47.696;8.066;2023-03-26T01:00:03;4.80;;;1.73;;
76176;SDS011;64938;47.696;8.066;2023-03-26T01:02:34;9.70;;;2.20;;
76176;SDS011;64938;47.696;8.066;2023-03-26T01:04:59;6.80;;;2.67;;
76176;SDS011;64938;47.696;8.066;2023-03-26T01:07:28;5.13;;;2.00;;
76176;SDS011;64938;47.696;8.066;2023-03-26T01:09:55;3.87;;;2.13;;
76176;SDS011;64938;47.696;8.066;2023-03-26T01:12:23;4.13;;;1.57;;
76176;SDS011;64938;47.696;8.066;2023-03-26T01:14:52;3.67;;;1.60;;
76176;SDS011;64938;47.696;8.066;2023-03-26T01:17:20;5.43;;;1.87;;
76176;SDS011;64938;47.696;8.066;2023-03-26T01:22:38;14.60;;;2.83;;
76176;SDS011;64938;47.696;8.066;2023-03-26T01:25:10;4.37;;;1.70;;
76176;SDS011;64938;47.696;8.066;2023-03-26T01:27:38;3.53;;;1.50;;
76176;SDS011;64938;47.696;8.066;2023-03-26T01:30:09;8.03;;;2.33;;
76176;SDS011;64938;47.696;8.066;2023-03-26T01:32:41;4.87;;;1.77;;
76176;SDS011;64938;47.696;8.066;2023-03-26T01:38:16;6.03;;;2.03;;
76176;SDS011;64938;47.696;8.066;2023-03-26T01:40:51;5.30;;;1.70;;
76176;SDS011;64938;47.696;8.066;2023-03-26T01:46:10;3.60;;;2.00;;
76176;SDS011;64938;47.696;8.066;2023-03-26T01:48:38;6.73;;;2.00;;
76176;SDS011;64938;47.696;8.066;2023-03-26T01:51:06;6.03;;;2.03;;
76176;SDS011;64938;47.696;8.066;2023-03-26T01:53:36;5.87;;;1.53;;
76176;SDS011;64938;47.696;8.066;2023-03-26T01:56:11;7.60;;;2.00;;
76176;SDS011;64938;47.696;8.066;2023-03-26T02:03:45;8.10;;;1.83;;
76176;SDS011;64938;47.696;8.066;2023-03-26T02:06:18;7.07;;;1.60;;
76176;SDS011;64938;47.696;8.066;2023-03-26T02:08:50;8.63;;;1.83;;
76176;SDS011;64938;47.696;8.066;2023-03-26T02:11:18;9.20;;;1.80;;
76176;SDS011;64938;47.696;8.066;2023-03-26T02:13:44;4.30;;;1.67;;
76176;SDS011;64938;47.696;8.066;2023-03-26T02:16:12;11.20;;;2.47;;
76176;SDS011;64938;47.696;8.066;2023-03-26T02:18:39;3.70;;;1.50;;
76176;SDS011;64938;47.696;8.066;2023-03-26T02:21:06;10.40;;;1.60;;
76176;SDS011;64938;47.696;8.066;2023-03-26T02:23:36;10.17;;;2.80;;
76176;SDS011;64938;47.696;8.066;2023-03-26T02:26:05;5.77;;;1.87;;
76176;SDS011;64938;47.696;8.066;2023-03-26T02:28:32;7.87;;;1.87;;
76176;SDS011;64938;47.696;8.066;2023-03-26T02:30:57;9.67;;;1.87;;
76176;SDS011;64938;47.696;8.066;2023-03-26T02:33:27;4.10;;;1.80;;
76176;SDS011;64938;47.696;8.066;2023-03-26T02:35:53;11.57;;;2.47;;
76176;SDS011;64938;47.696;8.066;2023-03-26T02:38:21;9.00;;;2.30;;
76176;SDS011;64938;47.696;8.066;2023-03-26T02:40:49;6.53;;;2.10;;
76176;SDS011;64938;47.696;8.066;2023-03-26T02:43:14;5.20;;;2.03;;
76176;SDS011;64938;47.696;8.066;2023-03-26T02:45:41;6.73;;;2.67;;
76176;SDS011;64938;47.696;8.066;2023-03-26T02:48:07;6.00;;;1.93;;
76176;SDS011;64938;47.696;8.066;2023-03-26T02:50:32;3.43;;;1.70;;
76176;SDS011;64938;47.696;8.066;2023-03-26T02:53:01;5.63;;;1.83;;
76176;SDS011;64938;47.696;8.066;2023-03-26T02:55:27;4.70;;;1.83;;
76176;SDS011;64938;47.696;8.066;2023-03-26T02:57:52;3.17;;;1.57;;
76176;SDS011;64938;47.696;8.066;2023-03-26T03:00:18;4.67;;;1.97;;
76176;SDS011;64938;47.696;8.066;2023-03-26T03:02:47;7.23;;;2.23;;
76176;SDS011;64938;47.696;8.066;2023-03-26T03:05:13;8.07;;;2.10;;
76176;SDS011;64938;47.696;8.066;2023-03-26T03:07:39;4.33;;;1.97;;
76176;SDS011;64938;47.696;8.066;2023-03-26T03:10:05;6.53;;;2.10;;
76176;SDS011;64938;47.696;8.066;2023-03-26T03:12:34;7.27;;;1.90;;
76176;SDS011;64938;47.696;8.066;2023-03-26T03:15:01;5.23;;;1.93;;
76176;SDS011;64938;47.696;8.066;2023-03-26T03:17:27;4.50;;;1.80;;
76176;SDS011;64938;47.696;8.066;2023-03-26T03:19:53;7.83;;;2.27;;
76176;SDS011;64938;47.696;8.066;2023-03-26T03:22:19;6.53;;;2.27;;
76176;SDS011;64938;47.696;8.066;2023-03-26T03:24:44;5.83;;;2.27;;
76176;SDS011;64938;47.696;8.066;2023-03-26T03:27:10;8.57;;;1.90;;
76176;SDS011;64938;47.696;8.066;2023-03-26T03:29:37;4.03;;;2.40;;
76176;SDS011;64938;47.696;8.066;2023-03-26T03:32:02;8.20;;;2.50;;
76176;SDS011;64938;47.696;8.066;2023-03-26T03:34:28;4.93;;;2.03;;
76176;SDS011;64938;47.696;8.066;2023-03-26T03:36:54;8.93;;;2.10;;
76176;SDS011;64938;47.696;8.066;2023-03-26T03:39:19;5.67;;;2.23;;
76176;SDS011;64938;47.696;8.066;2023-03-26T03:41:45;2.37;;;1.83;;
76176;SDS011;64938;47.696;8.066;2023-03-26T03:44:11;6.03;;;2.20;;
76176;SDS011;64938;47.696;8.066;2023-03-26T03:46:36;4.93;;;2.10;;
76176;SDS011;64938;47.696;8.066;2023-03-26T03:49:02;4.50;;;2.07;;
76176;SDS011;64938;47.696;8.066;2023-03-26T03:51:28;2.33;;;1.83;;
76176;SDS011;64938;47.696;8.066;2023-03-26T03:53:53;3.30;;;2.10;;
76176;SDS011;64938;47.696;8.066;2023-03-26T03:56:20;2.60;;;2.17;;
76176;SDS011;64938;47.696;8.066;2023-03-26T03:58:48;4.60;;;1.80;;
76176;SDS011;64938;47.696;8.066;2023-03-26T04:01:14;2.80;;;2.23;;
76176;SDS011;64938;47.696;8.066;2023-03-26T04:03:41;2.97;;;2.33;;
76176;SDS011;64938;47.696;8.066;2023-03-26T04:06:10;2.33;;;2.10;;
76176;SDS011;64938;47.696;8.066;2023-03-26T04:08:37;4.10;;;2.00;;
76176;SDS011;64938;47.696;8.066;2023-03-26T04:11:03;3.67;;;2.17;;
76176;SDS011;64938;47.696;8.066;2023-03-26T04:13:29;3.83;;;2.00;;
76176;SDS011;64938;47.696;8.066;2023-03-26T04:15:55;3.67;;;2.53;;
76176;SDS011;64938;47.696;8.066;2023-03-26T04:18:21;5.93;;;2.77;;
76176;SDS011;64938;47.696;8.066;2023-03-26T04:20:47;4.10;;;2.50;;
76176;SDS011;64938;47.696;8.066;2023-03-26T04:23:14;4.97;;;2.70;;
76176;SDS011;64938;47.696;8.066;2023-03-26T04:25:43;6.30;;;2.87;;
76176;SDS011;64938;47.696;8.066;2023-03-26T04:28:15;6.67;;;2.80;;
76176;SDS011;64938;47.696;8.066;2023-03-26T04:30:46;3.93;;;2.50;;
76176;SDS011;64938;47.696;8.066;2023-03-26T04:33:13;4.70;;;2.33;;
76176;SDS011;64938;47.696;8.066;2023-03-26T04:35:39;6.80;;;2.70;;
76176;SDS011;64938;47.696;8.066;2023-03-26T04:38:05;4.90;;;2.43;;
76176;SDS011;64938;47.696;8.066;2023-03-26T04:40:31;6.40;;;2.47;;
76176;SDS011;64938;47.696;8.066;2023-03-26T04:42:59;6.03;;;2.80;;
76176;SDS011;64938;47.696;8.066;2023-03-26T04:45:27;4.13;;;2.77;;
76176;SDS011;64938;47.696;8.066;2023-03-26T04:47:54;6.73;;;2.40;;
76176;SDS011;64938;47.696;8.066;2023-03-26T04:50:22;4.80;;;2.80;;
76176;SDS011;64938;47.696;8.066;2023-03-26T04:52:49;4.57;;;2.93;;
76176;SDS011;64938;47.696;8.066;2023-03-26T04:55:32;6.70;;;4.50;;
76176;SDS011;64938;47.696;8.066;2023-03-26T04:58:01;5.60;;;3.87;;
76176;SDS011;64938;47.696;8.066;2023-03-26T05:00:29;5.60;;;2.50;;
76176;SDS011;64938;47.696;8.066;2023-03-26T05:02:56;4.33;;;2.17;;
76176;SDS011;64938;47.696;8.066;2023-03-26T05:05:24;5.40;;;2.50;;
76176;SDS011;64938;47.696;8.066;2023-03-26T05:07:51;2.57;;;2.00;;
76176;SDS011;64938;47.696;8.066;2023-03-26T05:10:17;6.90;;;2.30;;
76176;SDS011;64938;47.696;8.066;2023-03-26T05:12:50;2.93;;;2.30;;
76176;SDS011;64938;47.696;8.066;2023-03-26T05:15:16;3.50;;;2.00;;
76176;SDS011;64938;47.696;8.066;2023-03-26T05:17:41;3.40;;;2.10;;
76176;SDS011;64938;47.696;8.066;2023-03-26T05:20:17;2.27;;;2.07;;
76176;SDS011;64938;47.696;8.066;2023-03-26T05:22:44;3.40;;;1.80;;
76176;SDS011;64938;47.696;8.066;2023-03-26T05:25:10;2.30;;;1.90;;
76176;SDS011;64938;47.696;8.066;2023-03-26T05:27:36;5.43;;;2.20;;
76176;SDS011;64938;47.696;8.066;2023-03-26T05:30:03;2.13;;;1.80;;
76176;SDS011;64938;47.696;8.066;2023-03-26T05:32:30;4.87;;;2.10;;
76176;SDS011;64938;47.696;8.066;2023-03-26T05:34:56;4.00;;;2.30;;
76176;SDS011;64938;47.696;8.066;2023-03-26T05:37:22;3.33;;;2.30;;
76176;SDS011;64938;47.696;8.066;2023-03-26T05:39:52;2.60;;;2.27;;
76176;SDS011;64938;47.696;8.066;2023-03-26T05:42:18;5.83;;;2.60;;
76176;SDS011;64938;47.696;8.066;2023-03-26T05:44:44;2.30;;;2.00;;
76176;SDS011;64938;47.696;8.066;2023-03-26T05:47:10;2.50;;;2.30;;
76176;SDS011;64938;47.696;8.066;2023-03-26T05:49:35;2.63;;;2.43;;
76176;SDS011;64938;47.696;8.066;2023-03-26T05:52:01;2.97;;;2.67;;
76176;SDS011;64938;47.696;8.066;2023-03-26T05:54:27;2.73;;;2.30;;
76176;SDS011;64938;47.696;8.066;2023-03-26T05:56:52;3.30;;;2.50;;
76176;SDS011;64938;47.696;8.066;2023-03-26T05:59:18;4.80;;;2.73;;
76176;SDS011;64938;47.696;8.066;2023-03-26T06:01:43;3.90;;;2.70;;
76176;SDS011;64938;47.696;8.066;2023-03-26T06:04:11;5.30;;;2.87;;
76176;SDS011;64938;47.696;8.066;2023-03-26T06:06:37;3.13;;;2.13;;
76176;SDS011;64938;47.696;8.066;2023-03-26T06:09:04;3.47;;;2.70;;
76176;SDS011;64938;47.696;8.066;2023-03-26T06:11:31;18.10;;;3.47;;
76176;SDS011;64938;47.696;8.066;2023-03-26T06:13:57;41.83;;;6.57;;
76176;SDS011;64938;47.696;8.066;2023-03-26T06:16:23;21.10;;;4.10;;
76176;SDS011;64938;47.696;8.066;2023-03-26T06:18:48;8.87;;;3.17;;
76176;SDS011;64938;47.696;8.066;2023-03-26T06:21:16;75.40;;;8.77;;
76176;SDS011;64938;47.696;8.066;2023-03-26T06:23:42;39.77;;;4.70;;
76176;SDS011;64938;47.696;8.066;2023-03-26T06:26:09;8.33;;;3.00;;
76176;SDS011;64938;47.696;8.066;2023-03-26T06:28:35;4.70;;;2.70;;
76176;SDS011;64938;47.696;8.066;2023-03-26T06:31:01;7.30;;;3.57;;
76176;SDS011;64938;47.696;8.066;2023-03-26T06:33:27;2.60;;;2.40;;
76176;SDS011;64938;47.696;8.066;2023-03-26T06:35:52;2.47;;;2.27;;
76176;SDS011;64938;47.696;8.066;2023-03-26T06:38:18;3.27;;;2.90;;
76176;SDS011;64938;47.696;8.066;2023-03-26T06:40:44;3.30;;;3.00;;
76176;SDS011;64938;47.696;8.066;2023-03-26T06:43:09;10.37;;;3.20;;
76176;SDS011;64938;47.696;8.066;2023-03-26T06:45:35;19.73;;;3.30;;
76176;SDS011;64938;47.696;8.066;2023-03-26T06:48:01;45.87;;;5.20;;
76176;SDS011;64938;47.696;8.066;2023-03-26T06:50:27;11.30;;;3.07;;
76176;SDS011;64938;47.696;8.066;2023-03-26T06:52:56;15.03;;;3.57;;
76176;SDS011;64938;47.696;8.066;2023-03-26T06:55:22;57.40;;;6.63;;
76176;SDS011;64938;47.696;8.066;2023-03-26T06:57:48;26.03;;;3.47;;
76176;SDS011;64938;47.696;8.066;2023-03-26T07:00:15;16.00;;;2.83;;
76176;SDS011;64938;47.696;8.066;2023-03-26T07:02:40;9.43;;;2.87;;
76176;SDS011;64938;47.696;8.066;2023-03-26T07:05:06;5.47;;;2.80;;
76176;SDS011;64938;47.696;8.066;2023-03-26T07:07:32;51.03;;;6.30;;
76176;SDS011;64938;47.696;8.066;2023-03-26T07:09:58;6.33;;;2.20;;
76176;SDS011;64938;47.696;8.066;2023-03-26T07:12:24;11.57;;;3.57;;
76176;SDS011;64938;47.696;8.066;2023-03-26T07:14:50;5.83;;;2.97;;
76176;SDS011;64938;47.696;8.066;2023-03-26T07:17:16;4.07;;;3.10;;
76176;SDS011;64938;47.696;8.066;2023-03-26T07:19:41;9.23;;;4.13;;
76176;SDS011;64938;47.696;8.066;2023-03-26T07:22:12;7.20;;;3.37;;
76176;SDS011;64938;47.696;8.066;2023-03-26T07:24:40;8.03;;;3.47;;
76176;SDS011;64938;47.696;8.066;2023-03-26T07:29:38;4.50;;;4.10;;
76176;SDS011;64938;47.696;8.066;2023-03-26T07:40:32;2.93;;;2.63;;
76176;SDS011;64938;47.696;8.066;2023-03-26T07:46:01;4.40;;;3.27;;
76176;SDS011;64938;47.696;8.066;2023-03-26T07:48:30;3.13;;;2.77;;
76176;SDS011;64938;47.696;8.066;2023-03-26T07:51:13;2.70;;;2.47;;
76176;SDS011;64938;47.696;8.066;2023-03-26T07:53:39;3.70;;;2.27;;
76176;SDS011;64938;47.696;8.066;2023-03-26T07:58:38;3.67;;;1.70;;
76176;SDS011;64938;47.696;8.066;2023-03-26T08:09:07;2.43;;;1.77;;
76176;SDS011;64938;47.696;8.066;2023-03-26T08:16:48;4.07;;;1.70;;
76176;SDS011;64938;47.696;8.066;2023-03-26T08:22:33;1.87;;;1.37;;
76176;SDS011;64938;47.696;8.066;2023-03-26T08:30:40;3.73;;;1.90;;
76176;SDS011;64938;47.696;8.066;2023-03-26T08:35:36;3.57;;;1.33;;
76176;SDS011;64938;47.696;8.066;2023-03-26T08:38:11;1.33;;;0.93;;
76176;SDS011;64938;47.696;8.066;2023-03-26T08:51:32;2.60;;;2.10;;
76176;SDS011;64938;47.696;8.066;2023-03-26T09:15:59;7.70;;;2.80;;
76176;SDS011;64938;47.696;8.066;2023-03-26T09:26:31;2.60;;;2.40;;
76176;SDS011;64938;47.696;8.066;2023-03-26T09:29:07;3.00;;;2.50;;
76176;SDS011;64938;47.696;8.066;2023-03-26T09:31:52;3.00;;;2.70;;
76176;SDS011;64938;47.696;8.066;2023-03-26T09:40:20;4.60;;;1.87;;
76176;SDS011;64938;47.696;8.066;2023-03-26T09:42:59;6.20;;;2.80;;
76176;SDS011;64938;47.696;8.066;2023-03-26T09:50:56;4.10;;;2.37;;
76176;SDS011;64938;47.696;8.066;2023-03-26T09:59:32;3.30;;;1.90;;
76176;SDS011;64938;47.696;8.066;2023-03-26T10:08:16;3.63;;;1.63;;
76176;SDS011;64938;47.696;8.066;2023-03-26T10:21:48;5.03;;;2.40;;
76176;SDS011;64938;47.696;8.066;2023-03-26T10:32:41;6.07;;;2.63;;
76176;SDS011;64938;47.696;8.066;2023-03-26T10:40:50;5.60;;;3.33;;
76176;SDS011;64938;47.696;8.066;2023-03-26T10:46:23;4.73;;;2.67;;
76176;SDS011;64938;47.696;8.066;2023-03-26T10:56:48;3.43;;;1.40;;
76176;SDS011;64938;47.696;8.066;2023-03-26T10:59:15;1.43;;;1.10;;
76176;SDS011;64938;47.696;8.066;2023-03-26T11:01:45;2.37;;;1.30;;
76176;SDS011;64938;47.696;8.066;2023-03-26T11:07:21;3.23;;;1.43;;
76176;SDS011;64938;47.696;8.066;2023-03-26T11:20:36;1.80;;;1.30;;
76176;SDS011;64938;47.696;8.066;2023-03-26T11:23:17;1.83;;;1.00;;
76176;SDS011;64938;47.696;8.066;2023-03-26T11:34:12;1.70;;;0.97;;
76176;SDS011;64938;47.696;8.066;2023-03-26T11:36:42;3.57;;;1.17;;
76176;SDS011;64938;47.696;8.066;2023-03-26T11:39:18;1.60;;;1.27;;
76176;SDS011;64938;47.696;8.066;2023-03-26T11:41:47;2.67;;;1.17;;
76176;SDS011;64938;47.696;8.066;2023-03-26T11:46:47;3.57;;;1.70;;
76176;SDS011;64938;47.696;8.066;2023-03-26T11:49:15;3.30;;;1.40;;
76176;SDS011;64938;47.696;8.066;2023-03-26T11:51:45;2.80;;;1.40;;
76176;SDS011;64938;47.696;8.066;2023-03-26T11:54:13;5.30;;;1.60;;
76176;SDS011;64938;47.696;8.066;2023-03-26T11:56:50;2.90;;;1.20;;
76176;SDS011;64938;47.696;8.066;2023-03-26T12:01:47;2.63;;;1.13;;
76176;SDS011;64938;47.696;8.066;2023-03-26T12:04:18;2.57;;;0.97;;
76176;SDS011;64938;47.696;8.066;2023-03-26T12:06:51;2.07;;;1.57;;
76176;SDS011;64938;47.696;8.066;2023-03-26T12:09:24;3.17;;;1.30;;
76176;SDS011;64938;47.696;8.066;2023-03-26T12:18:38;2.80;;;1.50;;
76176;SDS011;64938;47.696;8.066;2023-03-26T12:21:06;4.67;;;1.50;;
76176;SDS011;64938;47.696;8.066;2023-03-26T12:28:58;3.17;;;1.27;;
76176;SDS011;64938;47.696;8.066;2023-03-26T12:31:50;2.67;;;1.33;;
76176;SDS011;64938;47.696;8.066;2023-03-26T12:34:21;2.20;;;1.10;;
76176;SDS011;64938;47.696;8.066;2023-03-26T12:36:54;4.20;;;1.63;;
76176;SDS011;64938;47.696;8.066;2023-03-26T12:39:31;2.43;;;1.10;;
76176;SDS011;64938;47.696;8.066;2023-03-26T12:42:08;2.57;;;0.90;;
76176;SDS011;64938;47.696;8.066;2023-03-26T12:44:50;3.07;;;1.30;;
76176;SDS011;64938;47.696;8.066;2023-03-26T12:47:18;4.40;;;1.70;;
76176;SDS011;64938;47.696;8.066;2023-03-26T12:49:46;2.43;;;1.00;;
76176;SDS011;64938;47.696;8.066;2023-03-26T12:54:45;2.17;;;1.07;;
76176;SDS011;64938;47.696;8.066;2023-03-26T13:19:01;2.30;;;1.10;;
76176;SDS011;64938;47.696;8.066;2023-03-26T13:24:33;1.53;;;1.00;;
76176;SDS011;64938;47.696;8.066;2023-03-26T13:34:58;2.77;;;1.10;;
76176;SDS011;64938;47.696;8.066;2023-03-26T13:48:04;2.50;;;0.77;;
76176;SDS011;64938;47.696;8.066;2023-03-26T13:50:35;2.23;;;1.03;;
76176;SDS011;64938;47.696;8.066;2023-03-26T13:54:05;2.30;;;0.87;;
76176;SDS011;64938;47.696;8.066;2023-03-26T13:56:38;1.57;;;0.83;;
76176;SDS011;64938;47.696;8.066;2023-03-26T13:59:19;1.73;;;1.10;;
76176;SDS011;64938;47.696;8.066;2023-03-26T14:02:07;2.07;;;0.90;;
76176;SDS011;64938;47.696;8.066;2023-03-26T14:04:40;5.53;;;1.07;;
76176;SDS011;64938;47.696;8.066;2023-03-26T14:07:13;2.50;;;1.03;;
76176;SDS011;64938;47.696;8.066;2023-03-26T14:12:19;1.40;;;0.77;;
76176;SDS011;64938;47.696;8.066;2023-03-26T14:14:51;1.20;;;0.67;;
76176;SDS011;64938;47.696;8.066;2023-03-26T14:41:38;0.70;;;0.50;;
76176;SDS011;64938;47.696;8.066;2023-03-26T14:47:12;0.93;;;0.60;;
76176;SDS011;64938;47.696;8.066;2023-03-26T14:49:53;0.77;;;0.40;;
76176;SDS011;64938;47.696;8.066;2023-03-26T14:52:47;0.70;;;0.40;;
76176;SDS011;64938;47.696;8.066;2023-03-26T15:48:25;0.77;;;0.60;;
76176;SDS011;64938;47.696;8.066;2023-03-26T15:59:24;0.80;;;0.70;;
76176;SDS011;64938;47.696;8.066;2023-03-26T16:05:19;1.70;;;0.60;;
76176;SDS011;64938;47.696;8.066;2023-03-26T16:10:50;0.70;;;0.57;;
76176;SDS011;64938;47.696;8.066;2023-03-26T16:16:16;0.63;;;0.50;;
76176;SDS011;64938;47.696;8.066;2023-03-26T16:18:56;0.90;;;0.70;;
76176;SDS011;64938;47.696;8.066;2023-03-26T16:21:51;1.17;;;0.60;;
76176;SDS011;64938;47.696;8.066;2023-03-26T16:24:26;0.90;;;0.77;;
76176;SDS011;64938;47.696;8.066;2023-03-26T16:27:05;0.60;;;0.60;;
76176;SDS011;64938;47.696;8.066;2023-03-26T16:30:01;1.50;;;0.60;;
76176;SDS011;64938;47.696;8.066;2023-03-26T16:32:55;1.13;;;0.70;;
76176;SDS011;64938;47.696;8.066;2023-03-26T16:35:40;0.50;;;0.40;;
76176;SDS011;64938;47.696;8.066;2023-03-26T16:38:26;0.83;;;0.53;;
76176;SDS011;64938;47.696;8.066;2023-03-26T16:41:50;0.73;;;0.63;;
76176;SDS011;64938;47.696;8.066;2023-03-26T16:44:26;1.90;;;0.53;;
76176;SDS011;64938;47.696;8.066;2023-03-26T16:49:51;0.60;;;0.50;;
76176;SDS011;64938;47.696;8.066;2023-03-26T17:14:34;3.83;;;2.00;;
76176;SDS011;64938;47.696;8.066;2023-03-26T17:40:47;1.47;;;1.10;;
76176;SDS011;64938;47.696;8.066;2023-03-26T17:48:49;1.30;;;1.20;;
76176;SDS011;64938;47.696;8.066;2023-03-26T17:51:39;2.30;;;1.00;;
76176;SDS011;64938;47.696;8.066;2023-03-26T17:54:27;1.50;;;1.30;;
76176;SDS011;64938;47.696;8.066;2023-03-26T17:57:14;2.27;;;1.80;;
76176;SDS011;64938;47.696;8.066;2023-03-26T17:59:54;1.93;;;1.40;;
76176;SDS011;64938;47.696;8.066;2023-03-26T18:02:32;1.23;;;1.10;;
76176;SDS011;64938;47.696;8.066;2023-03-26T18:05:11;3.53;;;1.47;;
76176;SDS011;64938;47.696;8.066;2023-03-26T18:10:21;3.47;;;1.63;;
76176;SDS011;64938;47.696;8.066;2023-03-26T18:13:20;2.47;;;1.60;;
76176;SDS011;64938;47.696;8.066;2023-03-26T18:21:16;1.50;;;1.40;;
76176;SDS011;64938;47.696;8.066;2023-03-26T18:24:36;2.53;;;1.90;;
76176;SDS011;64938;47.696;8.066;2023-03-26T18:27:09;2.20;;;1.60;;
76176;SDS011;64938;47.696;8.066;2023-03-26T18:30:07;3.73;;;2.00;;
76176;SDS011;64938;47.696;8.066;2023-03-26T18:33:01;1.40;;;1.30;;
76176;SDS011;64938;47.696;8.066;2023-03-26T18:35:38;1.93;;;1.50;;
76176;SDS011;64938;47.696;8.066;2023-03-26T18:38:23;2.27;;;1.20;;
76176;SDS011;64938;47.696;8.066;2023-03-26T18:40:52;1.70;;;1.43;;
76176;SDS011;64938;47.696;8.066;2023-03-26T18:43:27;1.50;;;1.27;;
76176;SDS011;64938;47.696;8.066;2023-03-26T18:46:23;3.20;;;1.40;;
76176;SDS011;64938;47.696;8.066;2023-03-26T18:48:49;4.03;;;1.20;;
76176;SDS011;64938;47.696;8.066;2023-03-26T18:51:16;2.80;;;1.57;;
76176;SDS011;64938;47.696;8.066;2023-03-26T18:53:52;3.27;;;1.80;;
76176;SDS011;64938;47.696;8.066;2023-03-26T18:56:40;2.50;;;1.40;;
76176;SDS011;64938;47.696;8.066;2023-03-26T18:59:30;1.73;;;1.10;;
76176;SDS011;64938;47.696;8.066;2023-03-26T19:02:14;4.40;;;1.50;;
76176;SDS011;64938;47.696;8.066;2023-03-26T19:04:42;2.30;;;1.43;;
76176;SDS011;64938;47.696;8.066;2023-03-26T19:07:13;1.10;;;1.07;;
76176;SDS011;64938;47.696;8.066;2023-03-26T19:09:45;1.40;;;1.00;;
76176;SDS011;64938;47.696;8.066;2023-03-26T19:15:08;1.93;;;1.20;;
76176;SDS011;64938;47.696;8.066;2023-03-26T19:17:42;1.87;;;1.20;;
76176;SDS011;64938;47.696;8.066;2023-03-26T19:20:17;1.23;;;1.10;;
76176;SDS011;64938;47.696;8.066;2023-03-26T19:26:52;1.90;;;1.20;;
76176;SDS011;64938;47.696;8.066;2023-03-26T19:29:49;1.50;;;1.23;;
76176;SDS011;64938;47.696;8.066;2023-03-26T19:32:37;1.57;;;1.20;;
76176;SDS011;64938;47.696;8.066;2023-03-26T19:35:19;1.50;;;1.10;;
76176;SDS011;64938;47.696;8.066;2023-03-26T19:40:51;1.93;;;1.20;;
76176;SDS011;64938;47.696;8.066;2023-03-26T19:43:19;1.33;;;0.80;;
76176;SDS011;64938;47.696;8.066;2023-03-26T19:45:45;0.80;;;0.80;;
76176;SDS011;64938;47.696;8.066;2023-03-26T19:48:15;1.57;;;1.00;;
76176;SDS011;64938;47.696;8.066;2023-03-26T19:50:50;1.37;;;0.80;;
76176;SDS011;64938;47.696;8.066;2023-03-26T19:53:20;1.00;;;0.87;;
76176;SDS011;64938;47.696;8.066;2023-03-26T19:55:56;0.80;;;0.60;;
76176;SDS011;64938;47.696;8.066;2023-03-26T19:58:32;0.90;;;0.50;;
76176;SDS011;64938;47.696;8.066;2023-03-26T20:01:01;0.80;;;0.60;;
76176;SDS011;64938;47.696;8.066;2023-03-26T20:03:35;1.23;;;0.60;;
76176;SDS011;64938;47.696;8.066;2023-03-26T20:06:02;1.13;;;0.40;;
76176;SDS011;64938;47.696;8.066;2023-03-26T20:08:31;1.00;;;0.50;;
76176;SDS011;64938;47.696;8.066;2023-03-26T20:10:58;1.47;;;0.60;;
76176;SDS011;64938;47.696;8.066;2023-03-26T20:13:24;0.70;;;0.60;;
76176;SDS011;64938;47.696;8.066;2023-03-26T20:15:57;0.80;;;0.60;;
76176;SDS011;64938;47.696;8.066;2023-03-26T20:18:40;0.60;;;0.60;;
76176;SDS011;64938;47.696;8.066;2023-03-26T20:21:08;0.50;;;0.50;;
76176;SDS011;64938;47.696;8.066;2023-03-26T20:23:35;1.57;;;0.70;;
76176;SDS011;64938;47.696;8.066;2023-03-26T20:26:01;1.27;;;0.60;;
76176;SDS011;64938;47.696;8.066;2023-03-26T20:28:29;0.60;;;0.50;;
76176;SDS011;64938;47.696;8.066;2023-03-26T20:30:54;1.37;;;0.70;;
76176;SDS011;64938;47.696;8.066;2023-03-26T20:33:21;2.10;;;0.90;;
76176;SDS011;64938;47.696;8.066;2023-03-26T20:35:51;0.73;;;0.73;;
76176;SDS011;64938;47.696;8.066;2023-03-26T20:38:22;0.80;;;0.80;;
76176;SDS011;64938;47.696;8.066;2023-03-26T20:40:49;1.37;;;1.27;;
76176;SDS011;64938;47.696;8.066;2023-03-26T20:43:16;1.17;;;1.07;;
76176;SDS011;64938;47.696;8.066;2023-03-26T20:45:43;2.50;;;1.40;;
76176;SDS011;64938;47.696;8.066;2023-03-26T20:48:13;1.27;;;1.17;;
76176;SDS011;64938;47.696;8.066;2023-03-26T20:50:41;1.27;;;1.17;;
76176;SDS011;64938;47.696;8.066;2023-03-26T20:53:26;3.40;;;1.60;;
76176;SDS011;64938;47.696;8.066;2023-03-26T20:56:31;1.87;;;1.30;;
76176;SDS011;64938;47.696;8.066;2023-03-26T20:59:46;3.13;;;1.63;;
76176;SDS011;64938;47.696;8.066;2023-03-26T21:14:09;2.50;;;2.13;;
76176;SDS011;64938;47.696;8.066;2023-03-26T21:17:15;3.40;;;2.73;;
76176;SDS011;64938;47.696;8.066;2023-03-26T21:19:42;4.00;;;3.60;;
76176;SDS011;64938;47.696;8.066;2023-03-26T21:30:25;3.30;;;2.80;;
76176;SDS011;64938;47.696;8.066;2023-03-26T21:32:52;2.60;;;1.73;;
76176;SDS011;64938;47.696;8.066;2023-03-26T21:35:18;2.50;;;1.70;;
76176;SDS011;64938;47.696;8.066;2023-03-26T21:37:44;3.03;;;2.33;;
76176;SDS011;64938;47.696;8.066;2023-03-26T21:40:15;3.10;;;1.70;;
76176;SDS011;64938;47.696;8.066;2023-03-26T21:42:49;1.97;;;1.77;;
76176;SDS011;64938;47.696;8.066;2023-03-26T21:45:24;1.50;;;1.40;;
76176;SDS011;64938;47.696;8.066;2023-03-26T21:47:59;3.23;;;2.00;;
76176;SDS011;64938;47.696;8.066;2023-03-26T21:50:25;1.93;;;1.50;;
76176;SDS011;64938;47.696;8.066;2023-03-26T21:52:52;2.43;;;2.00;;
76176;SDS011;64938;47.696;8.066;2023-03-26T21:55:19;3.43;;;1.70;;
76176;SDS011;64938;47.696;8.066;2023-03-26T22:00:21;2.13;;;1.93;;
76176;SDS011;64938;47.696;8.066;2023-03-26T22:02:57;2.10;;;1.90;;
76176;SDS011;64938;47.696;8.066;2023-03-26T22:08:40;2.33;;;1.87;;
76176;SDS011;64938;47.696;8.066;2023-03-26T22:11:07;1.77;;;1.60;;
76176;SDS011;64938;47.696;8.066;2023-03-26T22:13:35;2.87;;;1.90;;
76176;SDS011;64938;47.696;8.066;2023-03-26T22:16:06;2.83;;;1.80;;
76176;SDS011;64938;47.696;8.066;2023-03-26T22:18:41;4.93;;;2.37;;
76176;SDS011;64938;47.696;8.066;2023-03-26T22:21:17;2.33;;;1.93;;
76176;SDS011;64938;47.696;8.066;2023-03-26T22:23:46;3.13;;;1.90;;
76176;SDS011;64938;47.696;8.066;2023-03-26T22:26:21;3.70;;;1.97;;
76176;SDS011;64938;47.696;8.066;2023-03-26T22:29:40;2.20;;;1.77;;
76176;SDS011;64938;47.696;8.066;2023-03-26T22:32:25;1.63;;;1.53;;